Time;durP1;ratioP1;P1;durP2;ratioP2;P2;SDS_P1;SDS_P2;PMS_P1;PMS_P2;Temp;Humidity;BMP_temperature;BMP_pressure;BME280_temperature;BME280_humidity;BME280_pressure;Samples;Min_cycle;Max_cycle;Signal;HPM_P1;HPM_P2
2023/12/01 00:00:57;;;;;;;32.75;24.20;;;6.90;99.90;;;;;;4249217;27;20121;-56
2023/12/01 00:02:59;;;;;;;32.67;24.85;;;6.90;99.90;;;;;;4249524;27;20050;-56
2023/12/01 00:05:02;;;;;;;38.50;26.33;;;7.00;99.90;;;;;;4250547;27;20043;-57
2023/12/01 00:07:04;;;;;;;33.88;26.13;;;7.00;99.90;;;;;;4252275;27;20467;-63
2023/12/01 00:09:06;;;;;;;33.50;25.27;;;6.90;99.90;;;;;;4252938;27;20039;-57
2023/12/01 00:11:09;;;;;;;38.28;24.95;;;6.90;99.90;;;;;;4252808;27;20069;-59
2023/12/01 00:13:12;;;;;;;36.63;26.17;;;7.00;99.90;;;;;;4252784;27;20047;-56
2023/12/01 00:15:14;;;;;;;33.78;25.42;;;6.90;99.90;;;;;;4251286;27;20075;-55
2023/12/01 00:17:17;;;;;;;35.90;25.48;;;6.90;99.90;;;;;;4250090;27;20047;-56
2023/12/01 00:19:18;;;;;;;40.22;26.42;;;6.90;99.90;;;;;;4249343;27;20049;-61
2023/12/01 00:21:21;;;;;;;33.08;24.17;;;6.90;99.90;;;;;;4249670;27;20409;-57
2023/12/01 00:23:23;;;;;;;31.70;23.33;;;6.90;99.90;;;;;;4250076;27;20043;-56
2023/12/01 00:25:25;;;;;;;35.10;24.98;;;6.90;99.90;;;;;;4249408;27;20046;-56
2023/12/01 00:27:27;;;;;;;28.98;22.80;;;6.90;99.90;;;;;;4249404;27;20039;-59
2023/12/01 00:29:31;;;;;;;31.90;24.70;;;6.90;99.90;;;;;;4249061;27;20490;-57
2023/12/01 00:31:33;;;;;;;33.42;25.50;;;7.00;99.90;;;;;;4249020;27;20039;-56
2023/12/01 00:33:35;;;;;;;36.47;25.95;;;6.90;99.90;;;;;;4248985;27;20093;-57
2023/12/01 00:35:37;;;;;;;37.17;26.42;;;6.90;99.90;;;;;;4249614;27;20043;-56
2023/12/01 00:37:39;;;;;;;36.22;26.05;;;6.90;99.90;;;;;;4230750;28;20055;-57
2023/12/01 00:39:41;;;;;;;31.02;23.23;;;6.80;99.90;;;;;;4249338;27;20042;-56
2023/12/01 00:41:43;;;;;;;30.75;23.92;;;6.80;99.90;;;;;;4249876;27;20050;-60
2023/12/01 00:43:45;;;;;;;35.25;25.73;;;6.80;99.90;;;;;;4251326;27;20066;-56
2023/12/01 00:45:49;;;;;;;35.30;25.92;;;6.70;99.90;;;;;;4248960;27;20596;-56
2023/12/01 00:47:52;;;;;;;38.22;26.95;;;6.80;99.90;;;;;;4250286;27;20119;-58
2023/12/01 00:49:54;;;;;;;38.20;27.88;;;6.80;99.90;;;;;;4251193;27;20405;-55
2023/12/01 00:51:57;;;;;;;31.83;24.35;;;6.70;99.90;;;;;;4249827;27;20482;-55
2023/12/01 00:53:59;;;;;;;37.17;27.55;;;6.70;99.90;;;;;;4215077;28;20063;-61
2023/12/01 00:56:01;;;;;;;38.33;27.33;;;6.70;99.90;;;;;;4250737;27;20039;-57
2023/12/01 00:58:03;;;;;;;42.38;27.63;;;6.70;99.90;;;;;;4249897;27;20050;-56
2023/12/01 01:00:07;;;;;;;35.80;26.90;;;6.70;99.90;;;;;;4249614;27;20066;-59
2023/12/01 01:02:10;;;;;;;40.70;27.52;;;6.50;99.90;;;;;;4249202;27;20049;-57
2023/12/01 01:04:12;;;;;;;33.13;25.60;;;6.60;99.90;;;;;;4248767;27;20047;-56
2023/12/01 01:06:14;;;;;;;38.65;28.30;;;6.60;99.90;;;;;;4249003;27;20061;-55
2023/12/01 01:08:16;;;;;;;38.70;27.65;;;6.60;99.90;;;;;;4230476;28;20044;-55
2023/12/01 01:10:18;;;;;;;36.80;27.45;;;6.60;99.90;;;;;;4248850;27;20486;-62
2023/12/01 01:12:21;;;;;;;40.67;28.83;;;6.60;99.90;;;;;;4248755;27;20035;-57
2023/12/01 01:14:23;;;;;;;35.97;27.45;;;6.50;99.90;;;;;;4249294;27;20453;-56
2023/12/01 01:16:25;;;;;;;37.45;28.20;;;6.50;99.90;;;;;;4249528;27;20066;-55
2023/12/01 01:18:28;;;;;;;35.50;26.85;;;6.50;99.90;;;;;;4249004;27;20051;-56
2023/12/01 01:20:30;;;;;;;39.05;28.67;;;6.60;99.90;;;;;;4249362;27;20059;-57
2023/12/01 01:22:34;;;;;;;36.50;27.50;;;6.50;99.90;;;;;;4248828;27;20047;-54
2023/12/01 01:24:36;;;;;;;38.75;30.02;;;6.50;99.90;;;;;;4248846;27;20118;-56
2023/12/01 01:26:38;;;;;;;36.17;27.45;;;6.50;99.90;;;;;;4248484;27;20455;-57
2023/12/01 01:28:40;;;;;;;36.03;26.50;;;6.50;99.90;;;;;;4247789;27;20074;-56
2023/12/01 01:30:42;;;;;;;38.33;27.25;;;6.50;99.90;;;;;;4247938;27;20063;-57
2023/12/01 01:32:45;;;;;;;38.80;27.90;;;6.50;99.90;;;;;;4229932;27;20414;-57
2023/12/01 01:34:48;;;;;;;35.03;26.88;;;6.60;99.90;;;;;;4248332;27;20047;-56
2023/12/01 01:36:50;;;;;;;35.35;25.83;;;6.50;99.90;;;;;;4248129;27;20088;-58
2023/12/01 01:38:52;;;;;;;36.40;27.60;;;6.50;99.90;;;;;;4248002;27;20043;-56
2023/12/01 01:40:54;;;;;;;39.70;29.63;;;6.60;99.90;;;;;;4248234;27;20081;-58
2023/12/01 01:42:56;;;;;;;41.25;29.98;;;6.60;99.90;;;;;;4247797;27;20047;-56
2023/12/01 01:44:59;;;;;;;40.35;30.17;;;6.60;99.90;;;;;;4229726;28;20043;-56
2023/12/01 01:47:01;;;;;;;40.30;28.85;;;6.60;99.90;;;;;;4248166;27;20069;-57
2023/12/01 01:49:05;;;;;;;45.17;30.33;;;6.60;99.90;;;;;;4231327;28;20071;-59
2023/12/01 01:51:09;;;;;;;27.67;20.48;;;6.60;99.90;;;;;;4250395;27;20053;-57
2023/12/01 01:53:11;;;;;;;37.92;28.75;;;6.50;99.90;;;;;;4249185;27;20541;-56
2023/12/01 01:55:13;;;;;;;42.00;30.42;;;6.50;99.90;;;;;;4248598;27;20442;-56
2023/12/01 01:57:16;;;;;;;45.05;32.10;;;6.50;99.90;;;;;;4248141;27;20047;-59
2023/12/01 01:59:21;;;;;;;44.05;33.08;;;6.60;99.90;;;;;;4229383;28;20051;-56
2023/12/01 02:01:25;;;;;;;42.42;31.38;;;6.60;99.90;;;;;;4249033;27;20401;-55
2023/12/01 02:03:28;;;;;;;45.85;33.55;;;6.50;99.90;;;;;;4249822;27;20050;-56
2023/12/01 02:05:33;;;;;;;42.97;32.97;;;6.40;99.90;;;;;;4231496;28;20082;-56
2023/12/01 02:07:37;;;;;;;47.92;34.55;;;6.50;99.90;;;;;;4247674;27;20142;-56
2023/12/01 02:09:39;;;;;;;47.47;33.67;;;6.50;99.90;;;;;;4246633;27;20501;-56
2023/12/01 02:11:41;;;;;;;40.80;31.05;;;6.50;99.90;;;;;;4247058;27;20084;-55
2023/12/01 02:13:43;;;;;;;48.05;32.58;;;6.50;99.90;;;;;;4247515;27;20039;-57
2023/12/01 02:15:46;;;;;;;43.90;32.75;;;6.50;99.90;;;;;;4247622;28;20130;-56
2023/12/01 02:17:48;;;;;;;42.08;30.10;;;6.50;99.90;;;;;;4247305;28;20035;-56
2023/12/01 02:19:51;;;;;;;35.08;26.40;;;6.40;99.90;;;;;;4247403;28;20134;-55
2023/12/01 02:21:55;;;;;;;45.25;31.42;;;6.40;99.90;;;;;;4247405;28;20047;-55
2023/12/01 02:23:57;;;;;;;33.40;26.45;;;6.50;99.90;;;;;;4247497;28;20043;-56
2023/12/01 02:25:59;;;;;;;40.53;29.38;;;6.50;99.90;;;;;;4247624;28;20039;-56
2023/12/01 02:28:01;;;;;;;36.05;27.92;;;6.60;99.90;;;;;;4247870;28;20074;-57
2023/12/01 02:30:05;;;;;;;36.60;26.63;;;6.60;99.90;;;;;;4248111;28;20093;-56
2023/12/01 02:32:07;;;;;;;35.33;27.20;;;6.60;99.90;;;;;;4248386;28;20066;-58
2023/12/01 02:34:10;;;;;;;34.92;27.50;;;6.50;99.90;;;;;;4248598;28;20559;-58
2023/12/01 02:36:14;;;;;;;35.70;26.30;;;6.40;99.90;;;;;;4229824;28;20046;-56
2023/12/01 02:38:18;;;;;;;34.85;27.27;;;6.30;99.90;;;;;;4229320;28;20391;-56
2023/12/01 02:40:21;;;;;;;33.90;26.83;;;6.30;99.90;;;;;;4228847;28;20044;-56
2023/12/01 02:42:23;;;;;;;34.30;27.08;;;6.40;99.90;;;;;;4247520;28;20717;-56
2023/12/01 02:44:25;;;;;;;36.40;27.65;;;6.30;99.90;;;;;;4247459;28;20486;-57
2023/12/01 02:46:27;;;;;;;33.13;26.15;;;6.40;99.90;;;;;;4229048;28;20410;-57
2023/12/01 02:48:29;;;;;;;32.95;26.73;;;6.40;99.90;;;;;;4247333;28;20065;-55
2023/12/01 02:50:31;;;;;;;35.25;26.85;;;6.40;99.90;;;;;;4247279;28;20402;-56
2023/12/01 02:52:34;;;;;;;32.97;25.65;;;6.40;99.90;;;;;;4247193;28;20043;-56
2023/12/01 02:54:37;;;;;;;37.88;28.25;;;6.50;99.90;;;;;;4247019;28;20100;-56
2023/12/01 02:56:39;;;;;;;39.80;29.08;;;6.50;99.90;;;;;;4246751;28;20051;-56
2023/12/01 02:58:41;;;;;;;38.47;29.13;;;6.50;99.90;;;;;;4246914;28;20122;-56
2023/12/01 03:00:43;;;;;;;37.80;28.60;;;6.50;99.90;;;;;;4247286;28;20043;-57
2023/12/01 03:02:46;;;;;;;36.60;27.70;;;6.30;99.90;;;;;;4247197;28;20067;-54
2023/12/01 03:04:48;;;;;;;35.95;26.50;;;6.30;99.90;;;;;;4247259;27;20047;-55
2023/12/01 03:06:50;;;;;;;37.58;27.52;;;6.30;99.90;;;;;;4250325;27;20043;-55
2023/12/01 03:08:52;;;;;;;38.90;29.25;;;6.30;99.90;;;;;;4250366;27;20047;-57
2023/12/01 03:10:56;;;;;;;38.42;28.40;;;6.30;99.90;;;;;;4250030;27;20092;-56
2023/12/01 03:12:58;;;;;;;32.65;24.52;;;6.30;99.90;;;;;;4250307;27;20066;-56
2023/12/01 03:15:00;;;;;;;41.67;31.10;;;6.30;99.90;;;;;;4249974;27;20048;-57
2023/12/01 03:17:10;;;;;;;38.72;29.45;;;6.30;99.90;;;;;;4250241;27;20051;-55
2023/12/01 03:19:12;;;;;;;35.17;26.08;;;6.40;99.90;;;;;;4250103;27;20047;-56
2023/12/01 03:21:14;;;;;;;39.70;29.25;;;6.30;99.90;;;;;;4250370;27;20043;-56
2023/12/01 03:23:17;;;;;;;39.28;29.38;;;6.30;99.90;;;;;;4249982;27;20080;-55
2023/12/01 03:25:20;;;;;;;34.08;26.30;;;6.30;99.90;;;;;;4250331;27;20063;-56
2023/12/01 03:27:25;;;;;;;36.33;26.52;;;6.20;99.90;;;;;;4250268;27;20047;-56
2023/12/01 03:29:27;;;;;;;35.47;24.50;;;6.20;99.90;;;;;;4249879;27;20074;-56
2023/12/01 03:31:29;;;;;;;36.60;26.48;;;6.30;99.90;;;;;;4250061;27;20047;-56
2023/12/01 03:33:31;;;;;;;34.63;25.48;;;6.20;99.90;;;;;;4249883;27;20051;-56
2023/12/01 03:35:33;;;;;;;38.28;26.38;;;6.20;99.90;;;;;;4250039;27;20189;-56
2023/12/01 03:37:35;;;;;;;39.03;28.77;;;6.20;99.90;;;;;;4249892;27;20043;-56
2023/12/01 03:39:38;;;;;;;36.47;26.20;;;6.20;99.90;;;;;;4249390;27;20043;-56
2023/12/01 03:41:40;;;;;;;41.25;28.45;;;6.10;99.90;;;;;;4250134;27;20087;-55
2023/12/01 03:43:43;;;;;;;38.67;28.35;;;6.10;99.90;;;;;;4249663;27;20074;-56
2023/12/01 03:45:45;;;;;;;36.38;25.80;;;6.10;99.90;;;;;;4249508;27;20049;-57
2023/12/01 03:47:49;;;;;;;41.28;29.98;;;6.10;99.90;;;;;;4249650;27;20035;-56
2023/12/01 03:49:52;;;;;;;45.22;30.58;;;6.10;99.90;;;;;;4249510;27;20543;-57
2023/12/01 03:51:54;;;;;;;42.55;29.90;;;6.10;99.90;;;;;;4249621;27;20047;-56
2023/12/01 03:53:56;;;;;;;39.85;27.85;;;6.00;99.90;;;;;;4249375;27;20039;-56
2023/12/01 03:55:58;;;;;;;40.42;29.63;;;6.10;99.90;;;;;;4249720;27;20051;-59
2023/12/01 03:58:02;;;;;;;44.53;30.10;;;6.10;99.90;;;;;;4249669;27;20067;-56
2023/12/01 04:00:09;;;;;;;38.85;28.75;;;6.10;99.90;;;;;;4249556;27;20047;-57
2023/12/01 04:02:11;;;;;;;38.45;27.00;;;6.10;99.90;;;;;;4249679;27;20450;-56
2023/12/01 04:04:14;;;;;;;42.08;30.35;;;6.10;99.90;;;;;;4249756;27;20130;-55
2023/12/01 04:06:16;;;;;;;43.03;29.15;;;6.10;99.90;;;;;;4249765;27;20405;-56
2023/12/01 04:08:18;;;;;;;40.83;28.50;;;6.10;99.90;;;;;;4249110;27;20133;-56
2023/12/01 04:10:23;;;;;;;41.30;29.15;;;6.00;99.90;;;;;;4249419;27;20043;-56
2023/12/01 04:12:25;;;;;;;37.60;27.63;;;6.00;99.90;;;;;;4249072;27;20096;-60
2023/12/01 04:14:29;;;;;;;39.45;27.98;;;6.00;99.90;;;;;;4249373;27;20048;-57
2023/12/01 04:16:34;;;;;;;39.42;29.70;;;6.20;99.90;;;;;;4248959;27;20062;-55
2023/12/01 04:18:36;;;;;;;38.95;27.77;;;6.20;99.90;;;;;;4249279;27;20053;-56
2023/12/01 04:20:39;;;;;;;47.25;32.30;;;6.30;99.90;;;;;;4248975;27;20410;-55
2023/12/01 04:22:41;;;;;;;42.35;29.92;;;6.20;99.90;;;;;;4248411;27;20115;-57
2023/12/01 04:24:43;;;;;;;43.70;31.85;;;6.20;99.90;;;;;;4249318;27;20398;-60
2023/12/01 04:26:48;;;;;;;44.22;30.40;;;6.10;99.90;;;;;;4249097;27;20409;-55
2023/12/01 04:28:50;;;;;;;42.80;31.40;;;6.10;99.90;;;;;;4248856;27;20051;-55
2023/12/01 04:30:52;;;;;;;43.88;31.52;;;6.10;99.90;;;;;;4248962;27;20065;-56
2023/12/01 04:32:56;;;;;;;42.05;29.45;;;6.10;99.90;;;;;;4230751;28;20043;-55
2023/12/01 04:34:59;;;;;;;44.92;32.28;;;6.20;99.90;;;;;;4249311;27;20047;-56
2023/12/01 04:37:09;;;;;;;46.80;34.28;;;6.20;99.90;;;;;;4248709;27;20047;-56
2023/12/01 04:39:14;;;;;;;41.75;31.15;;;6.20;99.90;;;;;;4248594;27;20406;-57
2023/12/01 04:41:16;;;;;;;46.92;31.80;;;6.20;99.90;;;;;;4249012;27;20047;-57
2023/12/01 04:43:18;;;;;;;44.10;31.55;;;6.10;99.90;;;;;;4248618;27;20051;-56
2023/12/01 04:45:24;;;;;;;43.08;31.73;;;6.10;99.90;;;;;;4248836;27;20051;-56
2023/12/01 04:47:26;;;;;;;39.80;29.80;;;6.10;99.90;;;;;;4248714;27;20528;-56
2023/12/01 04:49:30;;;;;;;45.67;32.95;;;6.20;99.90;;;;;;4248493;27;20051;-57
2023/12/01 04:51:33;;;;;;;42.58;31.73;;;6.20;99.90;;;;;;4248564;27;20047;-55
2023/12/01 04:53:35;;;;;;;39.97;29.42;;;6.20;99.90;;;;;;4248737;27;20058;-54
2023/12/01 04:55:37;;;;;;;36.30;27.50;;;6.30;99.90;;;;;;4248800;27;20043;-56
2023/12/01 04:57:39;;;;;;;45.63;32.22;;;6.30;99.90;;;;;;4249114;27;20059;-55
2023/12/01 04:59:41;;;;;;;46.67;31.67;;;6.20;99.90;;;;;;4248551;27;20542;-55
2023/12/01 05:01:43;;;;;;;40.38;30.13;;;6.30;99.90;;;;;;4231255;28;20063;-56
2023/12/01 05:03:46;;;;;;;47.78;32.92;;;6.30;99.90;;;;;;4251569;27;20043;-56
2023/12/01 05:05:49;;;;;;;48.58;32.72;;;6.40;99.90;;;;;;4251482;27;20119;-56
2023/12/01 05:07:56;;;;;;;46.67;33.13;;;6.30;99.90;;;;;;4250473;27;20039;-56
2023/12/01 05:09:58;;;;;;;46.67;33.35;;;6.30;99.90;;;;;;4249158;27;20462;-56
2023/12/01 05:12:00;;;;;;;47.47;35.42;;;6.20;99.90;;;;;;4229895;28;20122;-56
2023/12/01 05:14:08;;;;;;;51.67;35.42;;;6.20;99.90;;;;;;4248375;27;20054;-57
2023/12/01 05:16:11;;;;;;;47.00;33.97;;;6.20;99.90;;;;;;4248657;27;20056;-56
2023/12/01 05:18:13;;;;;;;46.08;34.53;;;6.10;99.90;;;;;;4248462;27;20047;-57
2023/12/01 05:20:16;;;;;;;44.67;32.42;;;6.10;99.90;;;;;;4247877;27;20043;-57
2023/12/01 05:22:20;;;;;;;50.90;35.83;;;6.10;99.90;;;;;;4248740;27;20047;-55
2023/12/01 05:24:22;;;;;;;43.25;32.97;;;6.10;99.90;;;;;;4248789;27;20063;-56
2023/12/01 05:26:24;;;;;;;53.80;36.55;;;6.10;99.90;;;;;;4248228;27;20043;-58
2023/12/01 05:28:26;;;;;;;49.85;35.10;;;6.10;99.90;;;;;;4247391;27;20043;-57
2023/12/01 05:30:29;;;;;;;47.95;34.85;;;6.10;99.90;;;;;;4247999;27;20047;-56
2023/12/01 05:32:32;;;;;;;48.05;35.47;;;6.00;99.90;;;;;;4248253;27;20042;-56
2023/12/01 05:34:34;;;;;;;52.30;37.03;;;5.90;99.90;;;;;;4247846;27;20046;-55
2023/12/01 05:36:36;;;;;;;52.67;36.72;;;5.90;99.90;;;;;;4248207;27;20047;-55
2023/12/01 05:38:40;;;;;;;48.65;35.25;;;5.80;99.90;;;;;;4248242;27;20053;-55
2023/12/01 05:40:42;;;;;;;49.85;34.92;;;5.80;99.90;;;;;;4248133;27;20040;-56
2023/12/01 05:42:49;;;;;;;53.63;34.67;;;5.70;99.90;;;;;;4248402;27;20415;-56
2023/12/01 05:44:51;;;;;;;51.80;34.88;;;5.70;99.90;;;;;;4248839;27;20047;-56
2023/12/01 05:46:53;;;;;;;48.03;33.85;;;5.70;99.90;;;;;;4249923;27;20039;-60
2023/12/01 05:48:55;;;;;;;57.55;38.13;;;5.60;99.90;;;;;;4249004;27;20050;-56
2023/12/01 05:50:58;;;;;;;58.75;39.00;;;5.70;99.90;;;;;;4250212;27;20051;-56
2023/12/01 05:53:02;;;;;;;55.75;36.65;;;5.60;99.90;;;;;;4249629;27;20040;-56
2023/12/01 05:55:10;;;;;;;55.38;36.92;;;5.50;99.90;;;;;;4249820;27;20046;-59
2023/12/01 05:57:14;;;;;;;57.65;39.20;;;5.40;99.90;;;;;;4250432;27;20405;-56
2023/12/01 05:59:16;;;;;;;60.45;40.58;;;5.40;99.90;;;;;;4248776;27;20040;-56
2023/12/01 06:01:18;;;;;;;60.00;39.10;;;5.40;99.90;;;;;;4247793;27;20092;-56
2023/12/01 06:03:20;;;;;;;56.95;37.30;;;5.40;99.90;;;;;;4247234;27;20077;-56
2023/12/01 06:05:23;;;;;;;58.60;38.70;;;5.40;99.90;;;;;;4248644;27;20074;-56
2023/12/01 06:07:25;;;;;;;54.00;35.35;;;5.40;99.90;;;;;;4249089;27;20047;-57
2023/12/01 06:09:27;;;;;;;63.92;39.15;;;5.40;99.90;;;;;;4249455;27;20040;-56
2023/12/01 06:11:31;;;;;;;55.70;37.22;;;5.40;99.90;;;;;;4248917;27;20351;-62
2023/12/01 06:13:33;;;;;;;60.95;39.80;;;5.40;99.90;;;;;;4234052;28;20078;-55
2023/12/01 06:15:35;;;;;;;55.22;38.28;;;5.50;99.90;;;;;;4212841;28;20123;-57
2023/12/01 06:17:37;;;;;;;57.60;34.45;;;5.60;99.90;;;;;;4230743;28;20047;-56
2023/12/01 06:19:39;;;;;;;56.60;36.72;;;5.60;99.90;;;;;;4230339;28;20054;-56
2023/12/01 06:21:41;;;;;;;57.65;37.83;;;5.60;99.90;;;;;;4230348;28;20051;-56
2023/12/01 06:23:43;;;;;;;60.38;37.85;;;5.60;99.90;;;;;;4230706;28;20043;-56
2023/12/01 06:25:46;;;;;;;57.75;37.88;;;5.60;99.90;;;;;;4212305;28;20048;-56
2023/12/01 06:27:50;;;;;;;57.97;38.47;;;5.50;99.90;;;;;;4234585;28;20046;-56
2023/12/01 06:29:52;;;;;;;58.05;38.33;;;5.50;99.90;;;;;;4247050;28;20104;-57
2023/12/01 06:31:54;;;;;;;59.95;39.92;;;5.40;99.90;;;;;;4247177;28;20043;-56
2023/12/01 06:33:56;;;;;;;59.65;39.50;;;5.40;99.90;;;;;;4246974;28;20039;-56
2023/12/01 06:35:58;;;;;;;59.67;37.28;;;5.50;99.90;;;;;;4247393;28;20040;-56
2023/12/01 06:38:00;;;;;;;57.10;37.95;;;5.50;99.90;;;;;;4247315;28;20053;-56
2023/12/01 06:40:04;;;;;;;55.83;35.13;;;5.50;99.90;;;;;;4249610;27;20126;-56
2023/12/01 06:42:06;;;;;;;53.10;36.08;;;5.50;99.90;;;;;;4250651;27;20046;-56
2023/12/01 06:44:09;;;;;;;63.08;39.40;;;5.50;99.90;;;;;;4250544;27;20047;-56
2023/12/01 06:46:11;;;;;;;54.60;36.78;;;5.50;99.90;;;;;;4250828;27;20047;-56
2023/12/01 06:48:14;;;;;;;57.70;38.35;;;5.40;99.90;;;;;;4250292;27;20055;-56
2023/12/01 06:50:17;;;;;;;59.25;37.38;;;5.30;99.90;;;;;;4250617;27;20459;-56
2023/12/01 06:52:19;;;;;;;64.00;40.35;;;5.30;99.90;;;;;;4250418;27;20043;-56
2023/12/01 06:54:21;;;;;;;64.03;39.75;;;5.40;99.90;;;;;;4250461;27;20047;-57
2023/12/01 06:56:23;;;;;;;64.13;39.45;;;5.50;99.90;;;;;;4250365;27;20060;-56
2023/12/01 06:58:25;;;;;;;55.45;38.17;;;5.50;99.90;;;;;;4250543;27;20039;-57
2023/12/01 07:00:29;;;;;;;57.90;39.15;;;5.50;99.90;;;;;;4250486;27;20046;-56
2023/12/01 07:02:34;;;;;;;71.30;37.53;;;5.50;99.90;;;;;;4250007;27;20043;-57
2023/12/01 07:04:37;;;;;;;53.67;36.40;;;5.50;99.90;;;;;;4250163;27;20051;-57
2023/12/01 07:06:39;;;;;;;56.95;38.92;;;5.50;99.90;;;;;;4250420;27;20043;-56
2023/12/01 07:08:41;;;;;;;53.97;35.97;;;5.50;99.90;;;;;;4250446;27;20112;-55
2023/12/01 07:10:44;;;;;;;54.58;35.25;;;5.50;99.90;;;;;;4250162;27;20126;-55
2023/12/01 07:12:46;;;;;;;62.00;39.15;;;5.50;99.90;;;;;;4240963;27;20064;-56
2023/12/01 07:14:48;;;;;;;57.15;38.47;;;5.50;99.90;;;;;;4250296;27;20043;-56
2023/12/01 07:16:52;;;;;;;58.65;39.17;;;5.50;99.90;;;;;;4249813;27;20482;-56
2023/12/01 07:18:54;;;;;;;57.40;36.50;;;5.40;99.90;;;;;;4250581;27;20043;-57
2023/12/01 07:20:56;;;;;;;60.35;38.42;;;5.40;99.90;;;;;;4252197;27;20050;-56
2023/12/01 07:22:59;;;;;;;59.55;38.83;;;5.40;99.90;;;;;;4251663;27;20051;-58
2023/12/01 07:25:09;;;;;;;59.42;38.03;;;5.40;99.90;;;;;;4250527;27;20055;-55
2023/12/01 07:27:11;;;;;;;62.70;38.05;;;5.40;99.90;;;;;;4250193;27;20043;-56
2023/12/01 07:29:14;;;;;;;62.97;39.38;;;5.40;99.90;;;;;;4249834;27;20490;-57
2023/12/01 07:31:16;;;;;;;59.88;37.47;;;5.40;99.90;;;;;;4231799;28;20456;-56
2023/12/01 07:33:20;;;;;;;52.05;34.13;;;5.40;99.90;;;;;;4250425;27;20103;-55
2023/12/01 07:35:22;;;;;;;56.58;36.25;;;5.40;99.90;;;;;;4250081;27;20478;-56
2023/12/01 07:37:24;;;;;;;57.47;38.13;;;5.40;99.90;;;;;;4250420;27;20118;-55
2023/12/01 07:39:27;;;;;;;61.72;38.50;;;5.40;99.90;;;;;;4249919;27;20085;-56
2023/12/01 07:41:29;;;;;;;61.45;38.03;;;5.40;99.90;;;;;;4250652;27;20047;-59
2023/12/01 07:43:31;;;;;;;56.42;36.00;;;5.40;99.90;;;;;;4251987;27;20054;-55
2023/12/01 07:45:34;;;;;;;53.95;35.60;;;5.40;99.90;;;;;;4250086;27;20055;-56
2023/12/01 07:47:36;;;;;;;57.72;36.63;;;5.40;99.90;;;;;;4249974;27;20047;-56
2023/12/01 07:49:41;;;;;;;56.17;35.60;;;5.50;99.90;;;;;;4231863;28;20051;-56
2023/12/01 07:51:43;;;;;;;58.30;37.40;;;5.60;99.90;;;;;;4249096;27;20054;-56
2023/12/01 07:53:45;;;;;;;54.45;34.30;;;5.50;99.90;;;;;;4249903;27;20104;-57
2023/12/01 07:55:48;;;;;;;50.42;33.25;;;5.60;99.90;;;;;;4250053;27;20051;-56
2023/12/01 07:57:51;;;;;;;56.55;36.20;;;5.70;99.90;;;;;;4249984;27;20073;-57
2023/12/01 07:59:53;;;;;;;59.15;36.00;;;5.70;99.90;;;;;;4249333;27;20100;-56
2023/12/01 08:01:55;;;;;;;52.88;35.35;;;5.60;99.90;;;;;;4249691;27;20406;-56
2023/12/01 08:03:57;;;;;;;49.75;33.10;;;5.70;99.90;;;;;;4249626;27;20062;-55
2023/12/01 08:06:01;;;;;;;57.72;36.97;;;5.70;99.90;;;;;;4252401;27;20043;-63
2023/12/01 08:08:03;;;;;;;61.85;37.67;;;5.60;99.90;;;;;;4252692;27;20054;-55
2023/12/01 08:10:07;;;;;;;57.75;36.97;;;5.70;99.90;;;;;;4252561;27;20047;-56
2023/12/01 08:12:10;;;;;;;56.15;36.22;;;5.70;99.80;;;;;;4250262;27;20096;-55
2023/12/01 08:14:12;;;;;;;52.42;35.38;;;5.70;99.80;;;;;;4250142;27;20050;-54
2023/12/01 08:16:14;;;;;;;60.85;37.53;;;5.70;99.90;;;;;;4251609;27;20402;-56
2023/12/01 08:18:16;;;;;;;62.08;35.35;;;5.80;99.70;;;;;;4232827;28;20039;-56
2023/12/01 08:20:19;;;;;;;60.08;37.30;;;5.90;99.90;;;;;;4250491;27;20053;-56
2023/12/01 08:22:22;;;;;;;60.03;36.47;;;6.00;99.90;;;;;;4250844;27;20069;-57
2023/12/01 08:24:25;;;;;;;58.22;36.40;;;6.00;99.40;;;;;;4251230;27;20066;-59
2023/12/01 08:26:34;;;;;;;56.70;35.58;;;5.90;99.30;;;;;;4251461;27;20063;-55
2023/12/01 08:28:37;;;;;;;55.58;34.95;;;5.90;99.30;;;;;;4250303;27;20047;-56
2023/12/01 08:30:39;;;;;;;56.72;34.40;;;5.90;99.10;;;;;;4250013;27;20055;-56
2023/12/01 08:32:51;;;;;;;52.67;34.45;;;5.90;99.30;;;;;;4249383;27;20047;-57
2023/12/01 08:34:54;;;;;;;58.40;36.30;;;5.90;99.10;;;;;;4249172;27;20069;-56
2023/12/01 08:36:56;;;;;;;54.60;36.53;;;5.90;98.90;;;;;;4249139;27;20115;-56
2023/12/01 08:39:00;;;;;;;57.20;38.05;;;5.90;99.30;;;;;;4249068;27;20046;-54
2023/12/01 08:41:02;;;;;;;59.33;36.08;;;5.90;99.00;;;;;;4248893;27;20053;-56
2023/12/01 08:43:05;;;;;;;57.80;35.75;;;5.70;98.90;;;;;;4248476;27;20046;-57
2023/12/01 08:45:08;;;;;;;58.30;35.78;;;5.70;99.10;;;;;;4248867;27;20163;-55
2023/12/01 08:47:13;;;;;;;57.63;37.17;;;5.70;99.20;;;;;;4248559;27;20059;-57
2023/12/01 08:49:15;;;;;;;56.05;35.63;;;5.70;98.90;;;;;;4248872;27;20047;-56
2023/12/01 08:51:18;;;;;;;51.58;35.22;;;5.60;99.20;;;;;;4248934;27;20551;-56
2023/12/01 08:53:22;;;;;;;55.05;35.25;;;5.60;99.00;;;;;;4249071;27;20054;-55
2023/12/01 08:55:25;;;;;;;54.72;36.67;;;5.50;98.90;;;;;;4248800;27;20466;-57
2023/12/01 08:57:27;;;;;;;55.95;33.20;;;5.50;99.00;;;;;;4248431;27;20399;-56
2023/12/01 08:59:29;;;;;;;51.35;35.35;;;5.50;99.10;;;;;;4248414;27;20409;-56
2023/12/01 09:01:31;;;;;;;51.85;34.45;;;5.40;99.00;;;;;;4248770;27;20057;-56
2023/12/01 09:03:35;;;;;;;57.33;33.92;;;5.40;99.10;;;;;;4248215;27;20047;-56
2023/12/01 09:05:37;;;;;;;52.67;33.05;;;5.30;99.10;;;;;;4248511;27;20043;-56
2023/12/01 09:07:39;;;;;;;112.03;64.35;;;5.30;99.30;;;;;;4248700;27;20047;-55
2023/12/01 09:09:41;;;;;;;143.20;91.35;;;5.30;99.30;;;;;;4248502;27;20130;-56
2023/12/01 09:11:45;;;;;;;129.07;72.35;;;5.40;99.40;;;;;;4248378;27;20058;-55
2023/12/01 09:13:47;;;;;;;78.13;45.47;;;5.50;99.40;;;;;;4247846;27;20080;-55
2023/12/01 09:15:49;;;;;;;104.35;62.08;;;5.50;99.40;;;;;;4248517;27;20039;-57
2023/12/01 09:17:54;;;;;;;102.93;65.53;;;5.60;99.20;;;;;;4213273;28;20048;-56
2023/12/01 09:19:56;;;;;;;77.47;49.03;;;5.60;99.30;;;;;;4248330;27;20122;-55
2023/12/01 09:21:59;;;;;;;55.10;37.85;;;5.40;99.10;;;;;;4248961;27;20043;-58
2023/12/01 09:24:01;;;;;;;60.15;35.65;;;5.50;99.20;;;;;;4248507;27;20076;-55
2023/12/01 09:26:03;;;;;;;56.85;37.78;;;5.40;99.20;;;;;;4248142;27;20043;-55
2023/12/01 09:28:07;;;;;;;85.20;51.22;;;5.50;99.10;;;;;;4247643;27;20043;-57
2023/12/01 09:30:13;;;;;;;58.13;37.97;;;5.50;98.90;;;;;;4247887;27;20054;-55
2023/12/01 09:32:18;;;;;;;58.00;37.38;;;5.40;98.80;;;;;;4248081;27;20482;-56
2023/12/01 09:34:20;;;;;;;49.90;32.03;;;5.40;99.10;;;;;;4248095;27;20039;-55
2023/12/01 09:36:22;;;;;;;57.25;34.38;;;5.40;99.40;;;;;;4247807;27;20043;-56
2023/12/01 09:38:25;;;;;;;64.60;41.25;;;5.50;99.20;;;;;;4229657;28;20047;-56
2023/12/01 09:40:27;;;;;;;59.65;36.10;;;5.50;99.20;;;;;;4247888;27;20122;-56
2023/12/01 09:42:32;;;;;;;57.17;37.50;;;5.40;99.40;;;;;;4247371;27;20070;-56
2023/12/01 09:44:36;;;;;;;63.08;39.80;;;5.40;99.70;;;;;;4247552;27;20096;-55
2023/12/01 09:46:39;;;;;;;79.88;49.67;;;5.50;99.10;;;;;;4247899;27;20431;-54
2023/12/01 09:48:44;;;;;;;56.60;37.22;;;5.60;99.00;;;;;;4247628;27;20053;-55
2023/12/01 09:50:46;;;;;;;85.60;56.53;;;5.60;98.80;;;;;;4247768;27;20297;-56
2023/12/01 09:52:49;;;;;;;71.32;46.72;;;5.50;98.70;;;;;;4247749;27;20104;-56
2023/12/01 09:54:51;;;;;;;88.80;60.08;;;5.50;98.60;;;;;;4246864;27;20043;-56
2023/12/01 09:57:10;;;;;;;69.13;47.00;;;5.50;98.80;;;;;;4247394;27;20486;-59
2023/12/01 09:59:17;;;;;;;74.80;50.13;;;5.40;98.80;;;;;;4247832;27;20126;-55
2023/12/01 10:01:21;;;;;;;93.80;63.00;;;5.40;98.70;;;;;;4247629;27;20410;-55
2023/12/01 10:03:23;;;;;;;80.90;51.53;;;5.50;98.90;;;;;;4248163;27;20454;-55
2023/12/01 10:05:25;;;;;;;74.15;47.42;;;5.50;98.80;;;;;;4247767;27;20282;-56
2023/12/01 10:07:29;;;;;;;102.07;67.38;;;5.50;98.70;;;;;;4248565;27;20126;-56
2023/12/01 10:09:35;;;;;;;109.13;75.05;;;5.50;98.90;;;;;;4248329;27;20049;-61
2023/12/01 10:11:37;;;;;;;81.30;53.97;;;5.50;99.00;;;;;;4249029;27;20048;-58
2023/12/01 10:13:39;;;;;;;86.95;58.75;;;5.60;99.00;;;;;;4233048;27;20050;-57
2023/12/01 10:15:41;;;;;;;69.95;43.90;;;5.60;98.80;;;;;;4231368;28;20135;-56
2023/12/01 10:17:45;;;;;;;57.03;38.13;;;5.50;99.00;;;;;;4230397;28;20067;-56
2023/12/01 10:19:48;;;;;;;72.30;43.22;;;5.50;99.20;;;;;;4212571;28;20051;-56
2023/12/01 10:21:51;;;;;;;120.93;72.05;;;5.50;98.90;;;;;;4230428;28;20040;-56
2023/12/01 10:23:55;;;;;;;79.70;49.83;;;5.60;98.70;;;;;;4230329;28;20047;-56
2023/12/01 10:25:57;;;;;;;91.73;56.77;;;5.50;98.70;;;;;;4229923;28;20093;-61
2023/12/01 10:27:59;;;;;;;73.10;49.20;;;5.50;98.70;;;;;;4235932;28;20466;-55
2023/12/01 10:30:12;;;;;;;84.50;53.20;;;5.50;98.80;;;;;;4229011;28;20069;-56